createdAt,value
2023-01-21T00:00:45.798Z,-0.50
2023-01-21T00:03:13.096Z,-0.50
2023-01-21T00:05:39.950Z,-0.60
2023-01-21T00:08:06.702Z,-0.60
2023-01-21T00:10:34.069Z,-0.70
2023-01-21T00:13:00.962Z,-0.60
2023-01-21T00:15:30.559Z,-0.60
2023-01-21T00:17:57.346Z,-0.70
2023-01-21T00:20:24.083Z,-0.80
2023-01-21T00:22:53.943Z,-0.70
2023-01-21T00:25:21.309Z,-0.80
2023-01-21T00:27:48.528Z,-0.70
2023-01-21T00:30:15.819Z,-0.70
2023-01-21T00:32:42.787Z,-0.80
2023-01-21T00:35:09.847Z,-0.80
2023-01-21T00:37:36.772Z,-0.80
2023-01-21T00:40:05.589Z,-0.70
2023-01-21T00:42:32.641Z,-0.80
2023-01-21T00:45:00.073Z,-0.80
2023-01-21T00:47:26.946Z,-0.80
2023-01-21T00:49:53.682Z,-0.90
2023-01-21T00:52:20.429Z,-0.80
2023-01-21T00:54:47.197Z,-0.80
2023-01-21T00:57:13.999Z,-0.80
2023-01-21T00:59:41.055Z,-0.90
2023-01-21T01:02:08.732Z,-0.90
2023-01-21T01:04:35.681Z,-0.90
2023-01-21T01:07:02.533Z,-0.90
2023-01-21T01:09:29.484Z,-1.00
2023-01-21T01:11:56.335Z,-1.00
2023-01-21T01:14:24.016Z,-1.00
2023-01-21T01:16:50.971Z,-1.00
2023-01-21T01:19:18.024Z,-1.00
2023-01-21T01:21:44.887Z,-0.90
2023-01-21T01:24:12.040Z,-1.00
2023-01-21T01:26:41.944Z,-1.00
2023-01-21T01:29:13.422Z,-1.10
2023-01-21T01:31:40.372Z,-1.00
2023-01-21T01:34:07.369Z,-1.10
2023-01-21T01:36:34.271Z,-1.10
2023-01-21T01:39:01.575Z,-1.10
2023-01-21T01:41:30.307Z,-1.10
2023-01-21T01:44:00.878Z,-1.10
2023-01-21T01:46:31.120Z,-1.00
2023-01-21T01:49:01.939Z,-1.10
2023-01-21T01:51:56.308Z,-1.10
2023-01-21T01:54:33.281Z,-1.10
2023-01-21T01:57:03.304Z,-1.00
2023-01-21T01:59:31.775Z,-1.10
2023-01-21T02:02:06.617Z,-1.10
2023-01-21T02:04:38.656Z,-1.10
2023-01-21T02:07:05.592Z,-1.10
2023-01-21T02:09:32.416Z,-1.00
2023-01-21T02:12:01.407Z,-1.00
2023-01-21T02:14:29.802Z,-1.10
2023-01-21T02:17:10.483Z,-1.00
2023-01-21T02:20:03.217Z,-1.00
2023-01-21T02:22:45.468Z,-1.00
2023-01-21T02:25:15.352Z,-1.00
2023-01-21T02:28:19.333Z,-1.00
2023-01-21T02:33:45.290Z,-1.00
2023-01-21T02:36:26.972Z,-1.00
2023-01-21T02:39:21.602Z,-0.90
2023-01-21T02:41:51.419Z,-1.00
2023-01-21T02:44:40.861Z,-1.10
2023-01-21T02:47:10.383Z,-1.20
2023-01-21T02:50:05.941Z,-1.20
2023-01-21T02:52:32.729Z,-1.30
2023-01-21T02:55:02.533Z,-1.30
2023-01-21T02:57:47.822Z,-1.40
2023-01-21T03:00:20.227Z,-1.40
2023-01-21T03:03:08.810Z,-1.40
2023-01-21T03:06:26.863Z,-1.40
2023-01-21T03:09:02.014Z,-1.40
2023-01-21T03:11:29.173Z,-1.50
2023-01-21T03:14:29.612Z,-1.50
2023-01-21T03:17:08.673Z,-1.50
2023-01-21T03:19:37.505Z,-1.50
2023-01-21T03:22:11.218Z,-1.40
2023-01-21T03:24:41.406Z,-1.40
2023-01-21T03:27:10.117Z,-1.50
2023-01-21T03:29:40.093Z,-1.60
2023-01-21T03:32:10.705Z,-1.60
2023-01-21T03:34:42.128Z,-1.50
2023-01-21T03:37:41.993Z,-1.60
2023-01-21T03:40:16.356Z,-1.50
2023-01-21T03:42:44.719Z,-1.60
2023-01-21T03:45:12.534Z,-1.60
2023-01-21T03:47:42.256Z,-1.60
2023-01-21T03:50:20.014Z,-1.60
2023-01-21T03:52:47.129Z,-1.60
2023-01-21T03:55:16.213Z,-1.60
2023-01-21T03:57:43.054Z,-1.60
2023-01-21T04:00:10.903Z,-1.60
2023-01-21T04:02:37.753Z,-1.50
2023-01-21T04:05:04.993Z,-1.50
2023-01-21T04:07:31.781Z,-1.50
2023-01-21T04:09:58.495Z,-1.50
2023-01-21T04:12:25.276Z,-1.50
2023-01-21T04:14:52.052Z,-1.60
2023-01-21T04:17:18.768Z,-1.50
2023-01-21T04:19:45.525Z,-1.50
2023-01-21T04:22:12.463Z,-1.50
2023-01-21T04:24:39.268Z,-1.50
2023-01-21T04:27:06.041Z,-1.50
2023-01-21T04:29:32.765Z,-1.50
2023-01-21T04:31:59.548Z,-1.50
2023-01-21T04:34:26.383Z,-1.60
2023-01-21T04:36:53.154Z,-1.50
2023-01-21T04:39:19.917Z,-1.50
2023-01-21T04:41:46.698Z,-1.60
2023-01-21T04:44:13.529Z,-1.60
2023-01-21T04:46:40.307Z,-1.50
2023-01-21T04:49:07.089Z,-1.60
2023-01-21T04:51:33.838Z,-1.50
2023-01-21T04:54:00.663Z,-1.50
2023-01-21T04:56:27.687Z,-1.50
2023-01-21T04:58:55.745Z,-1.50
2023-01-21T05:01:22.534Z,-1.60
2023-01-21T05:03:49.342Z,-1.50
2023-01-21T05:06:16.098Z,-1.60
2023-01-21T05:08:43.142Z,-1.50
2023-01-21T05:11:12.139Z,-1.50
2023-01-21T05:13:38.844Z,-1.40
2023-01-21T05:16:08.570Z,-1.50
2023-01-21T05:18:38.840Z,-1.40
2023-01-21T05:21:06.622Z,-1.40
2023-01-21T05:23:33.461Z,-1.40
2023-01-21T05:26:00.174Z,-1.40
2023-01-21T05:28:26.949Z,-1.40
2023-01-21T05:30:53.745Z,-1.40
2023-01-21T05:33:26.218Z,-1.40
2023-01-21T05:35:53.145Z,-1.40
2023-01-21T05:38:19.935Z,-1.50
2023-01-21T05:40:46.716Z,-1.50
2023-01-21T05:43:13.533Z,-1.40
2023-01-21T05:45:40.421Z,-1.50
2023-01-21T05:48:07.178Z,-1.50
2023-01-21T05:50:33.900Z,-1.50
2023-01-21T05:53:00.651Z,-1.50
2023-01-21T05:55:27.419Z,-1.50
2023-01-21T05:57:54.138Z,-1.50
2023-01-21T06:00:21.264Z,-1.50
2023-01-21T06:02:48.057Z,-1.50
2023-01-21T06:05:14.866Z,-1.60
2023-01-21T06:07:41.683Z,-1.60
2023-01-21T06:10:09.074Z,-1.50
2023-01-21T06:12:35.952Z,-1.50
2023-01-21T06:15:02.745Z,-1.50
2023-01-21T06:17:29.560Z,-1.60
2023-01-21T06:19:56.268Z,-1.60
2023-01-21T06:22:23.006Z,-1.60
2023-01-21T06:24:49.733Z,-1.60
2023-01-21T06:27:16.509Z,-1.60
2023-01-21T06:29:44.011Z,-1.80
2023-01-21T06:32:10.871Z,-1.90
2023-01-21T06:34:37.714Z,-1.80
2023-01-21T06:37:04.546Z,-1.90
2023-01-21T06:39:31.308Z,-2.00
2023-01-21T06:41:58.035Z,-2.00
2023-01-21T06:44:24.886Z,-1.90
2023-01-21T06:47:00.804Z,-1.90
2023-01-21T06:49:27.921Z,-1.90
2023-01-21T06:51:54.657Z,-1.90
2023-01-21T06:54:21.427Z,-1.90
2023-01-21T06:56:48.164Z,-1.90
2023-01-21T06:59:14.860Z,-1.90
2023-01-21T07:01:41.617Z,-1.90
2023-01-21T07:04:08.377Z,-1.80
2023-01-21T07:06:35.168Z,-1.80
2023-01-21T07:09:03.808Z,-1.80
2023-01-21T07:11:31.391Z,-1.80
2023-01-21T07:13:58.332Z,-1.80
2023-01-21T07:16:25.143Z,-1.80
2023-01-21T07:18:52.257Z,-1.90
2023-01-21T07:21:19.259Z,-1.90
2023-01-21T07:23:46.786Z,-2.00
2023-01-21T07:26:13.532Z,-1.90
2023-01-21T07:28:40.309Z,-1.90
2023-01-21T07:31:07.217Z,-1.90
2023-01-21T07:33:34.162Z,-2.00
2023-01-21T07:36:01.044Z,-2.00
2023-01-21T07:38:27.896Z,-2.00
2023-01-21T07:40:54.652Z,-2.00
2023-01-21T07:43:21.412Z,-1.90
2023-01-21T07:45:48.448Z,-1.80
2023-01-21T07:48:15.373Z,-1.80
2023-01-21T07:50:42.154Z,-1.80
2023-01-21T07:53:11.325Z,-1.90
2023-01-21T07:55:38.121Z,-1.80
2023-01-21T07:58:07.931Z,-1.80
2023-01-21T08:00:34.629Z,-1.80
2023-01-21T08:05:41.528Z,-1.80
2023-01-21T08:08:08.304Z,-1.80
2023-01-21T08:10:35.053Z,-1.80
2023-01-21T08:13:02.122Z,-1.70
2023-01-21T08:15:28.935Z,-1.50
2023-01-21T08:17:56.596Z,-1.50
2023-01-21T08:20:23.915Z,-1.60
2023-01-21T08:22:53.700Z,-1.60
2023-01-21T08:25:20.438Z,-1.50
2023-01-21T08:27:47.179Z,-1.50
2023-01-21T08:30:14.336Z,-1.40
2023-01-21T08:32:41.146Z,-1.40
2023-01-21T08:35:08.642Z,-1.30
2023-01-21T08:37:35.451Z,-1.20
2023-01-21T08:40:05.793Z,-1.20
2023-01-21T08:42:32.518Z,-1.10
2023-01-21T08:44:59.288Z,-1.10
2023-01-21T08:47:25.993Z,-1.10
2023-01-21T08:49:52.705Z,-1.10
2023-01-21T08:52:20.922Z,-1.00
2023-01-21T08:54:50.430Z,-1.00
2023-01-21T08:57:17.478Z,-1.00
2023-01-21T08:59:44.177Z,-0.90
2023-01-21T09:02:14.020Z,-0.80
2023-01-21T09:04:40.812Z,-0.70
2023-01-21T09:07:07.553Z,-0.70
2023-01-21T09:09:34.317Z,-0.70
2023-01-21T09:12:01.284Z,-0.70
2023-01-21T09:14:29.065Z,-0.70
2023-01-21T09:16:56.376Z,-0.50
2023-01-21T09:19:24.019Z,-0.40
2023-01-21T09:21:52.524Z,-0.30
2023-01-21T09:24:19.251Z,-0.30
2023-01-21T09:26:46.186Z,-0.40
2023-01-21T09:29:13.145Z,-0.30
2023-01-21T09:31:39.980Z,-0.20
2023-01-21T09:34:06.894Z,-0.20
2023-01-21T09:36:35.325Z,-0.10
2023-01-21T09:39:02.589Z,-0.20
2023-01-21T09:41:52.341Z,-0.20
2023-01-21T09:44:25.770Z,-0.30
2023-01-21T09:47:02.515Z,-0.20
2023-01-21T09:49:54.034Z,-0.10
2023-01-21T09:52:41.874Z,-0.10
2023-01-21T09:55:18.891Z,0.00
2023-01-21T09:57:48.616Z,0.00
2023-01-21T10:00:36.910Z,0.10
2023-01-21T10:05:52.675Z,0.30
2023-01-21T10:08:33.145Z,0.30
2023-01-21T10:11:32.001Z,0.40
2023-01-21T10:14:29.216Z,0.30
2023-01-21T10:17:01.974Z,0.20
2023-01-21T10:19:54.660Z,0.20
2023-01-21T10:22:27.000Z,0.30
2023-01-21T10:25:03.004Z,0.30
2023-01-21T10:27:35.343Z,0.30
2023-01-21T10:30:34.673Z,0.30
2023-01-21T10:33:01.456Z,0.20
2023-01-21T10:35:56.377Z,0.30
2023-01-21T10:38:57.979Z,0.20
2023-01-21T10:41:53.552Z,0.30
2023-01-21T10:44:44.205Z,0.40
2023-01-21T10:47:39.615Z,0.60
2023-01-21T10:50:28.655Z,0.60
2023-01-21T10:53:06.869Z,0.70
2023-01-21T10:55:54.810Z,0.80
2023-01-21T10:58:46.314Z,0.80
2023-01-21T11:01:20.824Z,0.90
2023-01-21T11:03:57.143Z,1.00
2023-01-21T11:06:25.207Z,1.20
2023-01-21T11:08:57.215Z,1.20
2023-01-21T11:11:32.721Z,1.10
2023-01-21T11:14:00.775Z,1.30
2023-01-21T11:16:36.440Z,1.60
2023-01-21T11:19:05.818Z,1.50
2023-01-21T11:21:33.414Z,1.40
2023-01-21T11:24:18.462Z,1.40
2023-01-21T11:26:55.052Z,1.50
2023-01-21T11:29:23.439Z,1.60
2023-01-21T11:32:01.879Z,1.50
2023-01-21T11:34:29.271Z,1.50
2023-01-21T11:37:01.866Z,1.60
2023-01-21T11:39:31.988Z,1.60
2023-01-21T11:42:08.122Z,1.60
2023-01-21T11:44:53.289Z,1.60
2023-01-21T11:47:38.615Z,1.50
2023-01-21T11:50:30.396Z,1.40
2023-01-21T11:53:19.203Z,1.50
2023-01-21T11:55:54.295Z,1.40
2023-01-21T11:58:31.704Z,1.60
2023-01-21T12:01:01.577Z,1.60
2023-01-21T12:03:42.713Z,1.60
2023-01-21T12:06:17.164Z,1.70
2023-01-21T12:08:48.467Z,1.70
2023-01-21T12:11:20.873Z,1.70
2023-01-21T12:13:52.015Z,1.70
2023-01-21T12:16:24.846Z,1.50
2023-01-21T12:19:25.650Z,1.50
2023-01-21T12:21:55.493Z,1.50
2023-01-21T12:24:51.035Z,1.60
2023-01-21T12:27:35.751Z,1.70
2023-01-21T12:30:14.304Z,1.90
2023-01-21T12:32:45.927Z,1.90
2023-01-21T12:35:28.874Z,2.00
2023-01-21T12:38:16.199Z,1.90
2023-01-21T12:40:54.614Z,2.10
2023-01-21T12:43:25.591Z,2.10
2023-01-21T12:45:57.641Z,2.10
2023-01-21T12:48:46.537Z,2.10
2023-01-21T12:51:28.238Z,2.20
2023-01-21T12:54:19.891Z,2.20
2023-01-21T12:56:49.850Z,2.30
2023-01-21T12:59:31.659Z,2.20
2023-01-21T13:02:26.565Z,2.20
2023-01-21T13:05:05.984Z,2.20
2023-01-21T13:07:50.954Z,2.20
2023-01-21T13:10:37.570Z,2.20
2023-01-21T13:13:20.842Z,2.20
2023-01-21T13:15:52.631Z,2.30
2023-01-21T13:18:27.997Z,2.30
2023-01-21T13:21:00.480Z,2.40
2023-01-21T13:23:36.089Z,2.30
2023-01-21T13:26:11.656Z,2.30
2023-01-21T13:29:04.197Z,2.40
2023-01-21T13:31:54.022Z,2.50
2023-01-21T13:34:26.617Z,2.50
2023-01-21T13:36:53.329Z,2.50
2023-01-21T13:39:23.768Z,2.50
2023-01-21T13:42:09.241Z,2.50
2023-01-21T13:44:44.612Z,2.40
2023-01-21T13:47:51.480Z,2.40
2023-01-21T13:50:30.602Z,2.30
2023-01-21T13:53:32.294Z,2.40
2023-01-21T13:56:14.400Z,2.50
2023-01-21T13:58:58.104Z,2.40
2023-01-21T14:01:36.648Z,2.50
2023-01-21T14:04:40.327Z,2.50
2023-01-21T14:07:14.795Z,2.40
2023-01-21T14:09:47.522Z,2.40
2023-01-21T14:12:49.032Z,2.50
2023-01-21T14:15:37.328Z,2.40
2023-01-21T14:18:22.639Z,2.40
2023-01-21T14:21:07.505Z,2.50
2023-01-21T14:23:53.182Z,2.40
2023-01-21T14:26:45.111Z,2.40
2023-01-21T14:29:29.776Z,2.30
2023-01-21T14:32:23.152Z,2.30
2023-01-21T14:35:06.536Z,2.20
2023-01-21T14:37:44.154Z,2.30
2023-01-21T14:40:11.160Z,2.30
2023-01-21T14:42:50.070Z,2.20
2023-01-21T14:45:22.212Z,2.20
2023-01-21T14:47:54.213Z,2.20
2023-01-21T14:51:06.034Z,2.30
2023-01-21T14:53:57.051Z,2.20
2023-01-21T14:56:31.709Z,2.20
2023-01-21T14:59:04.865Z,2.20
2023-01-21T15:01:34.120Z,2.20
2023-01-21T15:04:07.482Z,2.10
2023-01-21T15:06:39.729Z,2.00
2023-01-21T15:09:07.457Z,2.10
2023-01-21T15:11:40.006Z,2.10
2023-01-21T15:14:12.652Z,2.00
2023-01-21T15:16:41.555Z,2.10
2023-01-21T15:19:08.322Z,2.10
2023-01-21T15:22:02.409Z,2.00
2023-01-21T15:24:31.636Z,2.10
2023-01-21T15:27:13.846Z,2.00
2023-01-21T15:29:54.096Z,2.10
2023-01-21T15:32:37.795Z,2.10
2023-01-21T15:35:18.721Z,2.00
2023-01-21T15:37:48.835Z,2.10
2023-01-21T15:40:26.957Z,2.00
2023-01-21T15:43:12.278Z,2.00
2023-01-21T15:46:26.913Z,2.00
2023-01-21T15:49:05.626Z,2.00
2023-01-21T15:52:02.160Z,1.90
2023-01-21T15:54:49.991Z,1.90
2023-01-21T15:57:46.440Z,2.00
2023-01-21T16:00:37.704Z,2.00
2023-01-21T16:06:10.631Z,1.90
2023-01-21T16:08:49.379Z,2.10
2023-01-21T16:11:16.331Z,2.00
2023-01-21T16:14:08.940Z,1.90
2023-01-21T16:16:42.761Z,1.90
2023-01-21T16:19:19.966Z,1.80
2023-01-21T16:21:51.076Z,1.80
2023-01-21T16:24:21.320Z,1.80
2023-01-21T16:26:48.039Z,1.90
2023-01-21T16:29:15.602Z,1.90
2023-01-21T16:31:59.429Z,1.80
2023-01-21T16:34:29.044Z,1.80
2023-01-21T16:36:55.906Z,1.70
2023-01-21T16:39:23.821Z,1.80
2023-01-21T16:42:01.970Z,1.80
2023-01-21T16:44:29.788Z,1.90
2023-01-21T16:46:56.733Z,1.80
2023-01-21T16:49:23.725Z,1.60
2023-01-21T16:51:57.257Z,1.60
2023-01-21T16:54:26.626Z,1.50
2023-01-21T16:56:53.435Z,1.40
2023-01-21T16:59:21.811Z,1.40
2023-01-21T17:01:50.121Z,1.40
2023-01-21T17:04:17.474Z,1.20
2023-01-21T17:06:45.985Z,1.30
2023-01-21T17:09:39.312Z,1.10
2023-01-21T17:12:10.427Z,1.10
2023-01-21T17:14:37.768Z,1.10
2023-01-21T17:17:07.966Z,1.10
2023-01-21T17:19:42.861Z,1.20
2023-01-21T17:22:19.919Z,1.20
2023-01-21T17:25:02.504Z,1.20
2023-01-21T17:27:30.188Z,1.30
2023-01-21T17:30:25.116Z,1.40
2023-01-21T17:33:00.657Z,1.30
2023-01-21T17:35:29.858Z,1.30
2023-01-21T17:37:58.992Z,1.40
2023-01-21T17:40:42.455Z,1.50
2023-01-21T17:43:24.510Z,1.50
2023-01-21T17:45:53.263Z,1.40
2023-01-21T17:48:28.726Z,1.40
2023-01-21T17:51:03.099Z,1.40
2023-01-21T17:53:31.023Z,1.30
2023-01-21T17:55:59.585Z,1.30
2023-01-21T17:58:32.362Z,1.40
2023-01-21T18:01:04.054Z,1.40
2023-01-21T18:03:30.800Z,1.30
2023-01-21T18:05:57.976Z,1.40
2023-01-21T18:08:25.082Z,1.50
2023-01-21T18:10:51.826Z,1.40
2023-01-21T18:13:20.559Z,1.40
2023-01-21T18:15:51.918Z,1.30
2023-01-21T18:18:24.163Z,1.30
2023-01-21T18:20:51.112Z,1.30
2023-01-21T18:23:18.344Z,1.30
2023-01-21T18:25:52.201Z,1.20
2023-01-21T18:28:22.446Z,1.10
2023-01-21T18:30:52.132Z,1.10
2023-01-21T18:33:19.469Z,1.20
2023-01-21T18:35:48.480Z,1.20
2023-01-21T18:38:27.397Z,1.10
2023-01-21T18:40:57.968Z,1.20
2023-01-21T18:43:27.882Z,1.10
2023-01-21T18:45:54.928Z,1.10
2023-01-21T18:48:27.573Z,1.10
2023-01-21T18:50:54.832Z,1.00
2023-01-21T18:53:21.748Z,1.00
2023-01-21T18:55:51.011Z,1.00
2023-01-21T18:58:17.873Z,1.00
2023-01-21T19:00:44.639Z,1.00
2023-01-21T19:03:15.612Z,0.80
2023-01-21T19:05:45.708Z,0.80
2023-01-21T19:08:16.686Z,0.80
2023-01-21T19:10:43.455Z,0.70
2023-01-21T19:13:11.811Z,0.70
2023-01-21T19:15:38.984Z,0.70
2023-01-21T19:18:11.592Z,0.60
2023-01-21T19:20:41.870Z,0.60
2023-01-21T19:23:17.531Z,0.60
2023-01-21T19:25:53.742Z,0.70
2023-01-21T19:28:21.549Z,0.60
2023-01-21T19:30:49.864Z,0.60
2023-01-21T19:33:16.814Z,0.60
2023-01-21T19:35:45.670Z,0.60
2023-01-21T19:38:18.806Z,0.50
2023-01-21T19:40:46.779Z,0.60
2023-01-21T19:43:22.663Z,0.70
2023-01-21T19:45:51.567Z,0.80
2023-01-21T19:48:20.804Z,0.80
2023-01-21T19:50:47.713Z,0.90
2023-01-21T19:53:16.533Z,1.00
2023-01-21T19:55:44.731Z,1.00
2023-01-21T19:58:19.538Z,1.00
2023-01-21T20:00:51.698Z,1.00
2023-01-21T20:03:20.513Z,1.10
2023-01-21T20:05:49.966Z,1.10
2023-01-21T20:08:20.666Z,1.10
2023-01-21T20:10:47.492Z,1.10
2023-01-21T20:13:15.732Z,1.00
2023-01-21T20:15:44.624Z,1.00
2023-01-21T20:18:24.590Z,1.00
2023-01-21T20:20:52.964Z,1.00
2023-01-21T20:23:21.264Z,1.00
2023-01-21T20:25:55.039Z,1.00
2023-01-21T20:28:25.265Z,1.00
2023-01-21T20:30:53.767Z,1.00
2023-01-21T20:33:23.741Z,1.00
2023-01-21T20:35:53.871Z,0.90
2023-01-21T20:38:30.231Z,0.90
2023-01-21T20:40:58.023Z,0.90
2023-01-21T20:43:25.024Z,0.80
2023-01-21T20:45:52.559Z,0.90
2023-01-21T20:48:26.921Z,0.90
2023-01-21T20:50:54.055Z,0.90
2023-01-21T20:53:21.045Z,0.80
2023-01-21T20:55:50.687Z,0.80
2023-01-21T20:58:19.474Z,0.80
2023-01-21T21:00:47.004Z,0.80
2023-01-21T21:03:16.650Z,0.90
2023-01-21T21:05:44.137Z,0.80
2023-01-21T21:08:19.450Z,0.80
2023-01-21T21:10:47.000Z,0.80
2023-01-21T21:13:14.641Z,0.80
2023-01-21T21:15:43.141Z,0.80
2023-01-21T21:18:14.776Z,0.80
2023-01-21T21:20:42.103Z,0.80
2023-01-21T21:23:13.956Z,0.80
2023-01-21T21:25:44.475Z,0.90
2023-01-21T21:28:17.322Z,0.80
2023-01-21T21:30:44.481Z,0.80
2023-01-21T21:33:18.722Z,0.80
2023-01-21T21:35:46.915Z,0.80
2023-01-21T21:38:21.853Z,0.80
2023-01-21T21:40:53.031Z,0.70
2023-01-21T21:43:35.698Z,0.80
2023-01-21T21:46:28.548Z,0.70
2023-01-21T21:48:55.270Z,0.70
2023-01-21T21:51:22.737Z,0.70
2023-01-21T21:53:49.955Z,0.70
2023-01-21T21:56:19.437Z,0.80
2023-01-21T21:58:47.223Z,0.70
2023-01-21T22:01:17.070Z,0.80
2023-01-21T22:03:44.265Z,0.70
2023-01-21T22:06:12.712Z,0.70
2023-01-21T22:08:41.452Z,0.60
2023-01-21T22:11:16.540Z,0.60
2023-01-21T22:13:44.673Z,0.50
2023-01-21T22:16:14.322Z,0.60
2023-01-21T22:18:41.942Z,0.50
2023-01-21T22:21:16.402Z,0.50
2023-01-21T22:23:43.713Z,0.50
2023-01-21T22:26:13.285Z,0.40
2023-01-21T22:28:41.053Z,0.30
2023-01-21T22:31:11.831Z,0.30
2023-01-21T22:33:39.396Z,0.20
2023-01-21T22:36:11.760Z,0.10
2023-01-21T22:38:40.664Z,0.10
2023-01-21T22:41:09.244Z,0.10
2023-01-21T22:43:38.464Z,0.10
2023-01-21T22:46:05.538Z,0.10
2023-01-21T22:48:32.453Z,0.10
2023-01-21T22:51:00.372Z,0.10
2023-01-21T22:53:28.000Z,0.10
2023-01-21T22:55:56.542Z,0.10
2023-01-21T22:58:24.734Z,0.10
2023-01-21T23:00:52.316Z,0.10
2023-01-21T23:03:19.999Z,0.10
2023-01-21T23:05:47.314Z,0.00
2023-01-21T23:08:15.242Z,0.00
2023-01-21T23:10:42.722Z,-0.10
2023-01-21T23:13:10.837Z,-0.10
2023-01-21T23:15:44.851Z,-0.10
2023-01-21T23:18:13.897Z,-0.20
2023-01-21T23:20:42.156Z,-0.20
2023-01-21T23:23:10.183Z,-0.20
2023-01-21T23:25:44.959Z,-0.20
2023-01-21T23:28:13.017Z,-0.30
2023-01-21T23:30:39.762Z,-0.30
2023-01-21T23:33:06.868Z,-0.30
2023-01-21T23:35:34.565Z,-0.30
2023-01-21T23:38:02.874Z,-0.30
2023-01-21T23:40:29.977Z,-0.30
2023-01-21T23:42:56.915Z,-0.30
2023-01-21T23:45:23.694Z,-0.40
2023-01-21T23:47:50.406Z,-0.30
2023-01-21T23:50:17.400Z,-0.40
2023-01-21T23:52:44.362Z,-0.40
2023-01-21T23:55:11.392Z,-0.40
2023-01-21T23:57:38.153Z,-0.40
